sensor_id;sensor_type;location;lat;lon;timestamp;P1;durP1;ratioP1;P2;durP2;ratioP2
23179;SDS011;11758;45.756;11.432;2023-08-07T00:01:37;0.60;;;0.60;;
23179;SDS011;11758;45.756;11.432;2023-08-07T00:04:03;0.50;;;0.50;;
23179;SDS011;11758;45.756;11.432;2023-08-07T00:06:29;0.57;;;0.57;;
23179;SDS011;11758;45.756;11.432;2023-08-07T00:08:55;1.30;;;0.60;;
23179;SDS011;11758;45.756;11.432;2023-08-07T00:11:21;0.60;;;0.60;;
23179;SDS011;11758;45.756;11.432;2023-08-07T00:13:47;1.90;;;0.60;;
23179;SDS011;11758;45.756;11.432;2023-08-07T00:16:14;0.40;;;0.40;;
23179;SDS011;11758;45.756;11.432;2023-08-07T00:18:40;0.50;;;0.50;;
23179;SDS011;11758;45.756;11.432;2023-08-07T00:21:06;0.50;;;0.50;;
23179;SDS011;11758;45.756;11.432;2023-08-07T00:23:32;1.08;;;0.60;;
23179;SDS011;11758;45.756;11.432;2023-08-07T00:25:58;1.60;;;0.50;;
23179;SDS011;11758;45.756;11.432;2023-08-07T00:28:27;1.25;;;0.60;;
23179;SDS011;11758;45.756;11.432;2023-08-07T00:30:57;1.75;;;0.60;;
23179;SDS011;11758;45.756;11.432;2023-08-07T00:36:24;0.50;;;0.50;;
23179;SDS011;11758;45.756;11.432;2023-08-07T00:38:59;2.47;;;0.47;;
23179;SDS011;11758;45.756;11.432;2023-08-07T00:41:25;0.50;;;0.50;;
23179;SDS011;11758;45.756;11.432;2023-08-07T00:43:52;2.00;;;0.50;;
23179;SDS011;11758;45.756;11.432;2023-08-07T00:46:18;0.30;;;0.30;;
23179;SDS011;11758;45.756;11.432;2023-08-07T00:48:44;2.00;;;0.50;;
23179;SDS011;11758;45.756;11.432;2023-08-07T00:51:11;2.50;;;0.43;;
23179;SDS011;11758;45.756;11.432;2023-08-07T00:53:38;2.08;;;0.50;;
23179;SDS011;11758;45.756;11.432;2023-08-07T00:56:04;2.15;;;0.40;;
23179;SDS011;11758;45.756;11.432;2023-08-07T00:58:31;0.43;;;0.40;;
23179;SDS011;11758;45.756;11.432;2023-08-07T01:01:05;1.20;;;0.50;;
23179;SDS011;11758;45.756;11.432;2023-08-07T01:04:01;0.30;;;0.30;;
23179;SDS011;11758;45.756;11.432;2023-08-07T01:06:30;0.38;;;0.38;;
23179;SDS011;11758;45.756;11.432;2023-08-07T01:08:56;1.70;;;0.40;;
23179;SDS011;11758;45.756;11.432;2023-08-07T01:16:31;0.32;;;0.32;;
23179;SDS011;11758;45.756;11.432;2023-08-07T01:19:00;0.30;;;0.30;;
23179;SDS011;11758;45.756;11.432;2023-08-07T01:21:28;2.75;;;0.68;;
23179;SDS011;11758;45.756;11.432;2023-08-07T01:23:54;0.30;;;0.30;;
23179;SDS011;11758;45.756;11.432;2023-08-07T01:26:20;0.30;;;0.30;;
23179;SDS011;11758;45.756;11.432;2023-08-07T01:28:49;0.40;;;0.40;;
23179;SDS011;11758;45.756;11.432;2023-08-07T01:31:20;0.30;;;0.30;;
23179;SDS011;11758;45.756;11.432;2023-08-07T01:33:50;0.25;;;0.25;;
23179;SDS011;11758;45.756;11.432;2023-08-07T01:36:19;2.17;;;0.45;;
23179;SDS011;11758;45.756;11.432;2023-08-07T01:38:47;0.52;;;0.52;;
23179;SDS011;11758;45.756;11.432;2023-08-07T01:41:14;0.30;;;0.30;;
23179;SDS011;11758;45.756;11.432;2023-08-07T01:43:40;0.50;;;0.50;;
23179;SDS011;11758;45.756;11.432;2023-08-07T01:46:06;0.40;;;0.40;;
23179;SDS011;11758;45.756;11.432;2023-08-07T01:48:33;2.17;;;0.40;;
23179;SDS011;11758;45.756;11.432;2023-08-07T01:50:59;0.40;;;0.40;;
23179;SDS011;11758;45.756;11.432;2023-08-07T01:53:25;0.40;;;0.35;;
23179;SDS011;11758;45.756;11.432;2023-08-07T01:55:51;0.30;;;0.30;;
23179;SDS011;11758;45.756;11.432;2023-08-07T01:58:17;0.40;;;0.40;;
23179;SDS011;11758;45.756;11.432;2023-08-07T02:00:43;0.40;;;0.40;;
23179;SDS011;11758;45.756;11.432;2023-08-07T02:03:09;0.57;;;0.57;;
23179;SDS011;11758;45.756;11.432;2023-08-07T02:05:36;0.28;;;0.28;;
23179;SDS011;11758;45.756;11.432;2023-08-07T02:08:02;1.17;;;0.22;;
23179;SDS011;11758;45.756;11.432;2023-08-07T02:10:28;0.30;;;0.30;;
23179;SDS011;11758;45.756;11.432;2023-08-07T02:12:56;0.50;;;0.50;;
23179;SDS011;11758;45.756;11.432;2023-08-07T02:15:24;0.35;;;0.35;;
23179;SDS011;11758;45.756;11.432;2023-08-07T02:17:50;0.28;;;0.28;;
23179;SDS011;11758;45.756;11.432;2023-08-07T02:20:16;0.30;;;0.30;;
23179;SDS011;11758;45.756;11.432;2023-08-07T02:22:42;0.40;;;0.40;;
23179;SDS011;11758;45.756;11.432;2023-08-07T02:25:08;0.20;;;0.20;;
23179;SDS011;11758;45.756;11.432;2023-08-07T02:27:34;0.40;;;0.40;;
23179;SDS011;11758;45.756;11.432;2023-08-07T02:30:00;0.30;;;0.20;;
23179;SDS011;11758;45.756;11.432;2023-08-07T02:32:28;0.38;;;0.38;;
23179;SDS011;11758;45.756;11.432;2023-08-07T02:34:55;0.30;;;0.30;;
23179;SDS011;11758;45.756;11.432;2023-08-07T02:37:21;0.40;;;0.40;;
23179;SDS011;11758;45.756;11.432;2023-08-07T02:39:47;0.30;;;0.30;;
23179;SDS011;11758;45.756;11.432;2023-08-07T02:42:13;0.20;;;0.20;;
23179;SDS011;11758;45.756;11.432;2023-08-07T02:44:39;0.32;;;0.32;;
23179;SDS011;11758;45.756;11.432;2023-08-07T02:47:05;0.35;;;0.35;;
23179;SDS011;11758;45.756;11.432;2023-08-07T02:49:32;0.55;;;0.30;;
23179;SDS011;11758;45.756;11.432;2023-08-07T02:51:58;0.30;;;0.30;;
23179;SDS011;11758;45.756;11.432;2023-08-07T02:54:24;0.35;;;0.35;;
23179;SDS011;11758;45.756;11.432;2023-08-07T02:56:50;0.30;;;0.30;;
23179;SDS011;11758;45.756;11.432;2023-08-07T02:59:16;0.35;;;0.35;;
23179;SDS011;11758;45.756;11.432;2023-08-07T03:01:43;0.20;;;0.20;;
23179;SDS011;11758;45.756;11.432;2023-08-07T03:04:09;0.25;;;0.25;;
23179;SDS011;11758;45.756;11.432;2023-08-07T03:06:36;0.30;;;0.30;;
23179;SDS011;11758;45.756;11.432;2023-08-07T03:09:02;0.30;;;0.30;;
23179;SDS011;11758;45.756;11.432;2023-08-07T03:11:28;0.38;;;0.38;;
23179;SDS011;11758;45.756;11.432;2023-08-07T03:13:54;0.20;;;0.20;;
23179;SDS011;11758;45.756;11.432;2023-08-07T03:16:21;0.40;;;0.40;;
23179;SDS011;11758;45.756;11.432;2023-08-07T03:18:47;0.40;;;0.40;;
23179;SDS011;11758;45.756;11.432;2023-08-07T03:21:13;0.25;;;0.25;;
23179;SDS011;11758;45.756;11.432;2023-08-07T03:23:39;0.73;;;0.40;;
23179;SDS011;11758;45.756;11.432;2023-08-07T03:26:06;0.28;;;0.28;;
23179;SDS011;11758;45.756;11.432;2023-08-07T03:28:34;0.50;;;0.50;;
23179;SDS011;11758;45.756;11.432;2023-08-07T03:31:00;0.10;;;0.10;;
23179;SDS011;11758;45.756;11.432;2023-08-07T03:33:26;0.20;;;0.20;;
23179;SDS011;11758;45.756;11.432;2023-08-07T03:35:53;0.30;;;0.30;;
23179;SDS011;11758;45.756;11.432;2023-08-07T03:38:19;1.55;;;0.30;;
23179;SDS011;11758;45.756;11.432;2023-08-07T03:40:45;0.30;;;0.30;;
23179;SDS011;11758;45.756;11.432;2023-08-07T03:43:11;0.20;;;0.20;;
23179;SDS011;11758;45.756;11.432;2023-08-07T03:45:37;0.43;;;0.43;;
23179;SDS011;11758;45.756;11.432;2023-08-07T03:48:04;0.30;;;0.30;;
23179;SDS011;11758;45.756;11.432;2023-08-07T03:50:30;0.30;;;0.30;;
23179;SDS011;11758;45.756;11.432;2023-08-07T03:52:59;1.55;;;0.40;;
23179;SDS011;11758;45.756;11.432;2023-08-07T03:55:25;0.17;;;0.17;;
23179;SDS011;11758;45.756;11.432;2023-08-07T03:57:51;0.40;;;0.40;;
23179;SDS011;11758;45.756;11.432;2023-08-07T04:00:17;0.43;;;0.43;;
23179;SDS011;11758;45.756;11.432;2023-08-07T04:02:47;0.40;;;0.38;;
23179;SDS011;11758;45.756;11.432;2023-08-07T04:05:14;0.47;;;0.47;;
23179;SDS011;11758;45.756;11.432;2023-08-07T04:07:45;0.20;;;0.20;;
23179;SDS011;11758;45.756;11.432;2023-08-07T04:10:12;0.55;;;0.25;;
23179;SDS011;11758;45.756;11.432;2023-08-07T04:12:38;0.20;;;0.20;;
23179;SDS011;11758;45.756;11.432;2023-08-07T04:15:04;0.30;;;0.30;;
23179;SDS011;11758;45.756;11.432;2023-08-07T04:17:32;0.55;;;0.40;;
23179;SDS011;11758;45.756;11.432;2023-08-07T04:20:00;1.65;;;0.30;;
23179;SDS011;11758;45.756;11.432;2023-08-07T04:22:33;0.40;;;0.40;;
23179;SDS011;11758;45.756;11.432;2023-08-07T04:25:04;0.80;;;0.30;;
23179;SDS011;11758;45.756;11.432;2023-08-07T04:27:30;0.28;;;0.28;;
23179;SDS011;11758;45.756;11.432;2023-08-07T04:29:56;0.30;;;0.30;;
23179;SDS011;11758;45.756;11.432;2023-08-07T04:32:23;1.10;;;0.35;;
23179;SDS011;11758;45.756;11.432;2023-08-07T04:34:49;0.30;;;0.30;;
23179;SDS011;11758;45.756;11.432;2023-08-07T04:37:15;0.20;;;0.20;;
23179;SDS011;11758;45.756;11.432;2023-08-07T04:39:41;0.47;;;0.47;;
23179;SDS011;11758;45.756;11.432;2023-08-07T04:42:07;0.30;;;0.30;;
23179;SDS011;11758;45.756;11.432;2023-08-07T04:44:33;0.40;;;0.40;;
23179;SDS011;11758;45.756;11.432;2023-08-07T04:47:00;0.20;;;0.20;;
23179;SDS011;11758;45.756;11.432;2023-08-07T04:49:26;0.20;;;0.20;;
23179;SDS011;11758;45.756;11.432;2023-08-07T04:51:52;0.22;;;0.22;;
23179;SDS011;11758;45.756;11.432;2023-08-07T04:54:18;0.20;;;0.20;;
23179;SDS011;11758;45.756;11.432;2023-08-07T04:56:44;0.20;;;0.20;;
23179;SDS011;11758;45.756;11.432;2023-08-07T04:59:11;0.57;;;0.40;;
23179;SDS011;11758;45.756;11.432;2023-08-07T05:01:37;0.32;;;0.32;;
23179;SDS011;11758;45.756;11.432;2023-08-07T05:04:03;0.30;;;0.30;;
23179;SDS011;11758;45.756;11.432;2023-08-07T05:06:30;0.63;;;0.30;;
23179;SDS011;11758;45.756;11.432;2023-08-07T05:08:56;0.40;;;0.40;;
23179;SDS011;11758;45.756;11.432;2023-08-07T05:11:22;0.30;;;0.30;;
23179;SDS011;11758;45.756;11.432;2023-08-07T05:13:48;0.30;;;0.30;;
23179;SDS011;11758;45.756;11.432;2023-08-07T05:16:14;0.20;;;0.20;;
23179;SDS011;11758;45.756;11.432;2023-08-07T05:18:43;0.10;;;0.10;;
23179;SDS011;11758;45.756;11.432;2023-08-07T05:21:10;0.30;;;0.30;;
23179;SDS011;11758;45.756;11.432;2023-08-07T05:23:36;0.15;;;0.15;;
23179;SDS011;11758;45.756;11.432;2023-08-07T05:26:02;0.30;;;0.30;;
23179;SDS011;11758;45.756;11.432;2023-08-07T05:28:28;0.28;;;0.28;;
23179;SDS011;11758;45.756;11.432;2023-08-07T05:30:54;0.20;;;0.20;;
23179;SDS011;11758;45.756;11.432;2023-08-07T05:33:20;0.20;;;0.20;;
23179;SDS011;11758;45.756;11.432;2023-08-07T05:35:47;0.25;;;0.25;;
23179;SDS011;11758;45.756;11.432;2023-08-07T05:38:13;0.35;;;0.35;;
23179;SDS011;11758;45.756;11.432;2023-08-07T05:40:39;0.30;;;0.30;;
23179;SDS011;11758;45.756;11.432;2023-08-07T05:43:05;0.28;;;0.28;;
23179;SDS011;11758;45.756;11.432;2023-08-07T05:45:31;0.28;;;0.28;;
23179;SDS011;11758;45.756;11.432;2023-08-07T05:47:57;0.20;;;0.20;;
23179;SDS011;11758;45.756;11.432;2023-08-07T05:50:24;0.17;;;0.17;;
23179;SDS011;11758;45.756;11.432;2023-08-07T05:52:50;0.13;;;0.13;;
23179;SDS011;11758;45.756;11.432;2023-08-07T05:55:16;0.55;;;0.55;;
23179;SDS011;11758;45.756;11.432;2023-08-07T05:57:42;0.40;;;0.40;;
23179;SDS011;11758;45.756;11.432;2023-08-07T06:00:08;0.50;;;0.50;;
23179;SDS011;11758;45.756;11.432;2023-08-07T06:02:42;0.43;;;0.43;;
23179;SDS011;11758;45.756;11.432;2023-08-07T06:05:08;6.45;;;0.50;;
23179;SDS011;11758;45.756;11.432;2023-08-07T06:07:35;2.30;;;0.40;;
23179;SDS011;11758;45.756;11.432;2023-08-07T06:10:01;0.73;;;0.40;;
23179;SDS011;11758;45.756;11.432;2023-08-07T06:12:28;0.80;;;0.40;;
23179;SDS011;11758;45.756;11.432;2023-08-07T06:14:54;1.48;;;0.38;;
23179;SDS011;11758;45.756;11.432;2023-08-07T06:17:20;0.50;;;0.50;;
23179;SDS011;11758;45.756;11.432;2023-08-07T06:19:46;2.40;;;0.68;;
23179;SDS011;11758;45.756;11.432;2023-08-07T06:22:12;1.85;;;0.45;;
23179;SDS011;11758;45.756;11.432;2023-08-07T06:24:39;1.38;;;0.70;;
23179;SDS011;11758;45.756;11.432;2023-08-07T06:27:05;0.40;;;0.40;;
23179;SDS011;11758;45.756;11.432;2023-08-07T06:29:31;0.57;;;0.43;;
23179;SDS011;11758;45.756;11.432;2023-08-07T06:31:57;0.90;;;0.60;;
23179;SDS011;11758;45.756;11.432;2023-08-07T06:34:23;0.70;;;0.70;;
23179;SDS011;11758;45.756;11.432;2023-08-07T06:36:49;0.70;;;0.70;;
23179;SDS011;11758;45.756;11.432;2023-08-07T06:39:16;0.60;;;0.60;;
23179;SDS011;11758;45.756;11.432;2023-08-07T06:41:42;0.60;;;0.60;;
23179;SDS011;11758;45.756;11.432;2023-08-07T06:44:08;1.05;;;0.60;;
23179;SDS011;11758;45.756;11.432;2023-08-07T06:46:34;0.95;;;0.60;;
23179;SDS011;11758;45.756;11.432;2023-08-07T06:49:00;0.52;;;0.35;;
23179;SDS011;11758;45.756;11.432;2023-08-07T06:51:26;0.73;;;0.73;;
23179;SDS011;11758;45.756;11.432;2023-08-07T06:53:52;0.50;;;0.50;;
23179;SDS011;11758;45.756;11.432;2023-08-07T06:56:19;0.63;;;0.40;;
23179;SDS011;11758;45.756;11.432;2023-08-07T06:58:45;1.55;;;0.40;;
23179;SDS011;11758;45.756;11.432;2023-08-07T07:01:11;1.08;;;0.50;;
23179;SDS011;11758;45.756;11.432;2023-08-07T07:03:37;0.68;;;0.68;;
23179;SDS011;11758;45.756;11.432;2023-08-07T07:06:04;0.55;;;0.55;;
23179;SDS011;11758;45.756;11.432;2023-08-07T07:08:30;0.40;;;0.40;;
23179;SDS011;11758;45.756;11.432;2023-08-07T07:10:56;2.50;;;0.52;;
23179;SDS011;11758;45.756;11.432;2023-08-07T07:13:23;0.60;;;0.60;;
23179;SDS011;11758;45.756;11.432;2023-08-07T07:15:55;0.52;;;0.52;;
23179;SDS011;11758;45.756;11.432;2023-08-07T07:18:22;2.05;;;0.70;;
23179;SDS011;11758;45.756;11.432;2023-08-07T07:20:48;0.93;;;0.63;;
23179;SDS011;11758;45.756;11.432;2023-08-07T07:23:17;0.63;;;0.63;;
23179;SDS011;11758;45.756;11.432;2023-08-07T07:25:43;0.70;;;0.70;;
23179;SDS011;11758;45.756;11.432;2023-08-07T07:28:09;1.08;;;0.60;;
23179;SDS011;11758;45.756;11.432;2023-08-07T07:30:35;0.43;;;0.43;;
23179;SDS011;11758;45.756;11.432;2023-08-07T07:33:04;2.95;;;0.52;;
23179;SDS011;11758;45.756;11.432;2023-08-07T07:35:31;0.60;;;0.50;;
23179;SDS011;11758;45.756;11.432;2023-08-07T07:37:58;0.60;;;0.60;;
23179;SDS011;11758;45.756;11.432;2023-08-07T07:40:24;0.68;;;0.60;;
23179;SDS011;11758;45.756;11.432;2023-08-07T07:42:50;1.13;;;0.52;;
23179;SDS011;11758;45.756;11.432;2023-08-07T07:45:16;2.78;;;0.55;;
23179;SDS011;11758;45.756;11.432;2023-08-07T07:47:42;5.13;;;0.40;;
23179;SDS011;11758;45.756;11.432;2023-08-07T07:50:08;0.60;;;0.60;;
23179;SDS011;11758;45.756;11.432;2023-08-07T07:52:35;0.85;;;0.77;;
23179;SDS011;11758;45.756;11.432;2023-08-07T07:55:01;1.75;;;0.60;;
23179;SDS011;11758;45.756;11.432;2023-08-07T07:57:27;1.83;;;0.55;;
23179;SDS011;11758;45.756;11.432;2023-08-07T07:59:53;4.72;;;1.05;;
23179;SDS011;11758;45.756;11.432;2023-08-07T08:02:19;0.50;;;0.50;;
23179;SDS011;11758;45.756;11.432;2023-08-07T08:04:45;1.27;;;0.70;;
23179;SDS011;11758;45.756;11.432;2023-08-07T08:07:13;0.95;;;0.93;;
23179;SDS011;11758;45.756;11.432;2023-08-07T08:09:39;0.60;;;0.60;;
23179;SDS011;11758;45.756;11.432;2023-08-07T08:12:05;1.52;;;0.50;;
23179;SDS011;11758;45.756;11.432;2023-08-07T08:14:31;2.67;;;0.70;;
23179;SDS011;11758;45.756;11.432;2023-08-07T08:16:57;0.60;;;0.60;;
23179;SDS011;11758;45.756;11.432;2023-08-07T08:19:23;0.70;;;0.70;;
23179;SDS011;11758;45.756;11.432;2023-08-07T08:21:49;4.22;;;0.90;;
23179;SDS011;11758;45.756;11.432;2023-08-07T08:24:15;0.70;;;0.70;;
23179;SDS011;11758;45.756;11.432;2023-08-07T08:26:42;1.23;;;0.70;;
23179;SDS011;11758;45.756;11.432;2023-08-07T08:29:08;1.00;;;0.82;;
23179;SDS011;11758;45.756;11.432;2023-08-07T08:31:34;0.75;;;0.75;;
23179;SDS011;11758;45.756;11.432;2023-08-07T08:34:00;2.63;;;0.70;;
23179;SDS011;11758;45.756;11.432;2023-08-07T08:36:26;0.60;;;0.60;;
23179;SDS011;11758;45.756;11.432;2023-08-07T08:38:52;11.18;;;0.90;;
23179;SDS011;11758;45.756;11.432;2023-08-07T08:41:19;3.17;;;1.23;;
23179;SDS011;11758;45.756;11.432;2023-08-07T08:43:45;3.78;;;1.00;;
23179;SDS011;11758;45.756;11.432;2023-08-07T08:46:14;3.78;;;0.70;;
23179;SDS011;11758;45.756;11.432;2023-08-07T08:48:41;1.83;;;0.60;;
23179;SDS011;11758;45.756;11.432;2023-08-07T08:51:09;1.52;;;0.90;;
23179;SDS011;11758;45.756;11.432;2023-08-07T08:53:36;0.90;;;0.90;;
23179;SDS011;11758;45.756;11.432;2023-08-07T08:59:06;5.63;;;0.93;;
23179;SDS011;11758;45.756;11.432;2023-08-07T09:01:32;0.90;;;0.90;;
23179;SDS011;11758;45.756;11.432;2023-08-07T09:03:59;2.33;;;0.80;;
23179;SDS011;11758;45.756;11.432;2023-08-07T09:06:25;3.17;;;0.75;;
23179;SDS011;11758;45.756;11.432;2023-08-07T09:08:52;5.05;;;0.70;;
23179;SDS011;11758;45.756;11.432;2023-08-07T09:11:18;1.55;;;0.68;;
23179;SDS011;11758;45.756;11.432;2023-08-07T09:13:45;0.90;;;0.90;;
23179;SDS011;11758;45.756;11.432;2023-08-07T09:16:13;0.75;;;0.75;;
23179;SDS011;11758;45.756;11.432;2023-08-07T09:18:40;0.63;;;0.63;;
23179;SDS011;11758;45.756;11.432;2023-08-07T09:21:06;1.40;;;0.60;;
23179;SDS011;11758;45.756;11.432;2023-08-07T09:23:32;0.40;;;0.40;;
23179;SDS011;11758;45.756;11.432;2023-08-07T09:26:03;0.50;;;0.50;;
23179;SDS011;11758;45.756;11.432;2023-08-07T09:28:29;0.50;;;0.50;;
23179;SDS011;11758;45.756;11.432;2023-08-07T09:30:55;0.50;;;0.50;;
23179;SDS011;11758;45.756;11.432;2023-08-07T09:33:28;0.55;;;0.55;;
23179;SDS011;11758;45.756;11.432;2023-08-07T09:35:58;0.52;;;0.52;;
23179;SDS011;11758;45.756;11.432;2023-08-07T09:38:31;0.60;;;0.60;;
23179;SDS011;11758;45.756;11.432;2023-08-07T09:41:01;0.57;;;0.57;;
23179;SDS011;11758;45.756;11.432;2023-08-07T09:43:28;0.40;;;0.40;;
23179;SDS011;11758;45.756;11.432;2023-08-07T09:46:04;1.20;;;0.60;;
23179;SDS011;11758;45.756;11.432;2023-08-07T09:48:30;0.50;;;0.50;;
23179;SDS011;11758;45.756;11.432;2023-08-07T09:51:01;1.27;;;0.88;;
23179;SDS011;11758;45.756;11.432;2023-08-07T09:53:30;0.60;;;0.60;;
23179;SDS011;11758;45.756;11.432;2023-08-07T09:55:57;0.50;;;0.50;;
23179;SDS011;11758;45.756;11.432;2023-08-07T09:58:25;0.60;;;0.60;;
23179;SDS011;11758;45.756;11.432;2023-08-07T10:00:51;0.70;;;0.70;;
23179;SDS011;11758;45.756;11.432;2023-08-07T10:03:24;0.70;;;0.70;;
23179;SDS011;11758;45.756;11.432;2023-08-07T10:05:51;1.45;;;0.60;;
23179;SDS011;11758;45.756;11.432;2023-08-07T10:08:18;0.50;;;0.50;;
23179;SDS011;11758;45.756;11.432;2023-08-07T10:10:44;1.20;;;0.40;;
23179;SDS011;11758;45.756;11.432;2023-08-07T10:13:12;0.52;;;0.52;;
23179;SDS011;11758;45.756;11.432;2023-08-07T10:15:39;1.45;;;0.52;;
23179;SDS011;11758;45.756;11.432;2023-08-07T10:18:07;0.50;;;0.50;;
23179;SDS011;11758;45.756;11.432;2023-08-07T10:20:34;1.48;;;0.80;;
23179;SDS011;11758;45.756;11.432;2023-08-07T10:23:07;0.90;;;0.90;;
23179;SDS011;11758;45.756;11.432;2023-08-07T10:25:33;0.52;;;0.52;;
23179;SDS011;11758;45.756;11.432;2023-08-07T10:28:00;0.60;;;0.60;;
23179;SDS011;11758;45.756;11.432;2023-08-07T10:30:27;0.52;;;0.52;;
23179;SDS011;11758;45.756;11.432;2023-08-07T10:32:55;0.60;;;0.60;;
23179;SDS011;11758;45.756;11.432;2023-08-07T10:35:32;0.50;;;0.50;;
23179;SDS011;11758;45.756;11.432;2023-08-07T10:38:08;0.70;;;0.70;;
23179;SDS011;11758;45.756;11.432;2023-08-07T10:43:19;0.40;;;0.40;;
23179;SDS011;11758;45.756;11.432;2023-08-07T10:45:45;0.90;;;0.73;;
23179;SDS011;11758;45.756;11.432;2023-08-07T10:48:12;0.57;;;0.57;;
23179;SDS011;11758;45.756;11.432;2023-08-07T10:55:54;0.73;;;0.60;;
23179;SDS011;11758;45.756;11.432;2023-08-07T11:00:51;1.98;;;0.70;;
23179;SDS011;11758;45.756;11.432;2023-08-07T11:03:25;6.80;;;0.90;;
23179;SDS011;11758;45.756;11.432;2023-08-07T11:05:52;0.80;;;0.80;;
23179;SDS011;11758;45.756;11.432;2023-08-07T11:08:21;2.08;;;0.52;;
23179;SDS011;11758;45.756;11.432;2023-08-07T11:10:49;0.65;;;0.65;;
23179;SDS011;11758;45.756;11.432;2023-08-07T11:13:15;0.40;;;0.40;;
23179;SDS011;11758;45.756;11.432;2023-08-07T11:15:41;1.05;;;0.77;;
23179;SDS011;11758;45.756;11.432;2023-08-07T11:18:08;0.63;;;0.63;;
23179;SDS011;11758;45.756;11.432;2023-08-07T11:20:34;0.45;;;0.45;;
23179;SDS011;11758;45.756;11.432;2023-08-07T11:23:04;3.70;;;0.70;;
23179;SDS011;11758;45.756;11.432;2023-08-07T11:25:31;0.60;;;0.60;;
23179;SDS011;11758;45.756;11.432;2023-08-07T11:27:58;0.75;;;0.60;;
23179;SDS011;11758;45.756;11.432;2023-08-07T11:30:24;0.70;;;0.70;;
23179;SDS011;11758;45.756;11.432;2023-08-07T11:32:50;0.57;;;0.57;;
23179;SDS011;11758;45.756;11.432;2023-08-07T11:35:17;0.80;;;0.80;;
23179;SDS011;11758;45.756;11.432;2023-08-07T11:37:47;0.60;;;0.60;;
23179;SDS011;11758;45.756;11.432;2023-08-07T11:40:13;0.63;;;0.63;;
23179;SDS011;11758;45.756;11.432;2023-08-07T11:42:40;0.70;;;0.70;;
23179;SDS011;11758;45.756;11.432;2023-08-07T11:45:07;0.88;;;0.85;;
23179;SDS011;11758;45.756;11.432;2023-08-07T11:47:33;0.73;;;0.73;;
23179;SDS011;11758;45.756;11.432;2023-08-07T11:50:00;0.70;;;0.70;;
23179;SDS011;11758;45.756;11.432;2023-08-07T11:52:27;0.60;;;0.60;;
23179;SDS011;11758;45.756;11.432;2023-08-07T11:54:53;0.60;;;0.60;;
23179;SDS011;11758;45.756;11.432;2023-08-07T11:57:22;0.60;;;0.60;;
23179;SDS011;11758;45.756;11.432;2023-08-07T11:59:51;1.00;;;1.00;;
23179;SDS011;11758;45.756;11.432;2023-08-07T12:02:27;1.00;;;1.00;;
23179;SDS011;11758;45.756;11.432;2023-08-07T12:04:57;1.13;;;1.13;;
23179;SDS011;11758;45.756;11.432;2023-08-07T12:07:24;0.50;;;0.50;;
23179;SDS011;11758;45.756;11.432;2023-08-07T12:09:51;1.75;;;0.70;;
23179;SDS011;11758;45.756;11.432;2023-08-07T12:12:19;0.60;;;0.60;;
23179;SDS011;11758;45.756;11.432;2023-08-07T12:14:45;0.70;;;0.70;;
23179;SDS011;11758;45.756;11.432;2023-08-07T12:17:11;0.60;;;0.60;;
23179;SDS011;11758;45.756;11.432;2023-08-07T12:19:40;0.73;;;0.73;;
23179;SDS011;11758;45.756;11.432;2023-08-07T12:22:09;1.00;;;1.00;;
23179;SDS011;11758;45.756;11.432;2023-08-07T12:24:36;0.98;;;0.98;;
23179;SDS011;11758;45.756;11.432;2023-08-07T12:27:03;0.90;;;0.90;;
23179;SDS011;11758;45.756;11.432;2023-08-07T12:29:29;0.90;;;0.90;;
23179;SDS011;11758;45.756;11.432;2023-08-07T12:31:56;1.85;;;0.80;;
23179;SDS011;11758;45.756;11.432;2023-08-07T12:34:24;0.90;;;0.90;;
23179;SDS011;11758;45.756;11.432;2023-08-07T12:36:51;0.80;;;0.80;;
23179;SDS011;11758;45.756;11.432;2023-08-07T12:39:17;1.65;;;0.90;;
23179;SDS011;11758;45.756;11.432;2023-08-07T12:41:44;0.73;;;0.73;;
23179;SDS011;11758;45.756;11.432;2023-08-07T12:44:10;0.65;;;0.65;;
23179;SDS011;11758;45.756;11.432;2023-08-07T12:46:37;0.88;;;0.88;;
23179;SDS011;11758;45.756;11.432;2023-08-07T12:49:05;5.05;;;0.90;;
23179;SDS011;11758;45.756;11.432;2023-08-07T12:51:32;0.80;;;0.80;;
23179;SDS011;11758;45.756;11.432;2023-08-07T12:53:58;0.90;;;0.90;;
23179;SDS011;11758;45.756;11.432;2023-08-07T12:56:24;0.88;;;0.88;;
23179;SDS011;11758;45.756;11.432;2023-08-07T12:58:51;1.45;;;0.77;;
23179;SDS011;11758;45.756;11.432;2023-08-07T13:01:17;1.48;;;0.70;;
23179;SDS011;11758;45.756;11.432;2023-08-07T13:03:44;0.75;;;0.75;;
23179;SDS011;11758;45.756;11.432;2023-08-07T13:06:10;0.77;;;0.77;;
23179;SDS011;11758;45.756;11.432;2023-08-07T13:08:37;1.02;;;1.00;;
23179;SDS011;11758;45.756;11.432;2023-08-07T13:11:03;0.70;;;0.70;;
23179;SDS011;11758;45.756;11.432;2023-08-07T13:13:30;0.70;;;0.70;;
23179;SDS011;11758;45.756;11.432;2023-08-07T13:15:56;0.77;;;0.77;;
23179;SDS011;11758;45.756;11.432;2023-08-07T13:18:22;0.80;;;0.80;;
23179;SDS011;11758;45.756;11.432;2023-08-07T13:20:48;1.95;;;0.73;;
23179;SDS011;11758;45.756;11.432;2023-08-07T13:23:14;2.05;;;0.80;;
23179;SDS011;11758;45.756;11.432;2023-08-07T13:25:41;0.85;;;0.85;;
23179;SDS011;11758;45.756;11.432;2023-08-07T13:28:07;3.75;;;0.80;;
23179;SDS011;11758;45.756;11.432;2023-08-07T13:30:33;2.03;;;0.77;;
23179;SDS011;11758;45.756;11.432;2023-08-07T13:32:59;1.75;;;1.00;;
23179;SDS011;11758;45.756;11.432;2023-08-07T13:35:25;1.25;;;1.15;;
23179;SDS011;11758;45.756;11.432;2023-08-07T13:37:51;1.02;;;1.02;;
23179;SDS011;11758;45.756;11.432;2023-08-07T13:40:17;4.57;;;0.80;;
23179;SDS011;11758;45.756;11.432;2023-08-07T13:42:45;0.82;;;0.82;;
23179;SDS011;11758;45.756;11.432;2023-08-07T13:45:11;1.00;;;1.00;;
23179;SDS011;11758;45.756;11.432;2023-08-07T13:47:38;0.90;;;0.90;;
23179;SDS011;11758;45.756;11.432;2023-08-07T13:50:05;0.90;;;0.90;;
23179;SDS011;11758;45.756;11.432;2023-08-07T13:52:33;0.70;;;0.70;;
23179;SDS011;11758;45.756;11.432;2023-08-07T13:54:59;3.55;;;0.90;;
23179;SDS011;11758;45.756;11.432;2023-08-07T13:57:25;0.80;;;0.80;;
23179;SDS011;11758;45.756;11.432;2023-08-07T13:59:51;0.90;;;0.90;;
23179;SDS011;11758;45.756;11.432;2023-08-07T14:02:19;1.52;;;0.90;;
23179;SDS011;11758;45.756;11.432;2023-08-07T14:04:45;0.90;;;0.90;;
23179;SDS011;11758;45.756;11.432;2023-08-07T14:07:11;1.00;;;1.00;;
23179;SDS011;11758;45.756;11.432;2023-08-07T14:09:38;0.73;;;0.73;;
23179;SDS011;11758;45.756;11.432;2023-08-07T14:12:04;1.05;;;1.05;;
23179;SDS011;11758;45.756;11.432;2023-08-07T14:14:30;0.90;;;0.90;;
23179;SDS011;11758;45.756;11.432;2023-08-07T14:16:56;0.90;;;0.90;;
23179;SDS011;11758;45.756;11.432;2023-08-07T14:19:25;0.90;;;0.90;;
23179;SDS011;11758;45.756;11.432;2023-08-07T14:21:52;0.90;;;0.90;;
23179;SDS011;11758;45.756;11.432;2023-08-07T14:24:18;0.90;;;0.90;;
23179;SDS011;11758;45.756;11.432;2023-08-07T14:26:44;0.90;;;0.90;;
23179;SDS011;11758;45.756;11.432;2023-08-07T14:29:10;0.75;;;0.70;;
23179;SDS011;11758;45.756;11.432;2023-08-07T14:31:36;0.70;;;0.70;;
23179;SDS011;11758;45.756;11.432;2023-08-07T14:34:02;0.90;;;0.90;;
23179;SDS011;11758;45.756;11.432;2023-08-07T14:36:28;2.33;;;1.00;;
23179;SDS011;11758;45.756;11.432;2023-08-07T14:38:55;2.70;;;1.00;;
23179;SDS011;11758;45.756;11.432;2023-08-07T14:41:21;1.00;;;1.00;;
23179;SDS011;11758;45.756;11.432;2023-08-07T14:43:47;0.70;;;0.70;;
23179;SDS011;11758;45.756;11.432;2023-08-07T14:46:13;1.65;;;1.55;;
23179;SDS011;11758;45.756;11.432;2023-08-07T14:48:40;0.75;;;0.75;;
23179;SDS011;11758;45.756;11.432;2023-08-07T14:51:06;0.80;;;0.80;;
23179;SDS011;11758;45.756;11.432;2023-08-07T14:53:32;1.05;;;0.90;;